sensor_id;sensor_type;location;lat;lon;timestamp;P1;durP1;ratioP1;P2;durP2;ratioP2
69410;SDS011;56604;48.652;9.194;2023-03-04T00:00:30;60.70;;;28.50;;
69410;SDS011;56604;48.652;9.194;2023-03-04T00:02:56;72.70;;;33.67;;
69410;SDS011;56604;48.652;9.194;2023-03-04T00:05:21;87.13;;;40.20;;
69410;SDS011;56604;48.652;9.194;2023-03-04T00:07:47;89.97;;;37.50;;
69410;SDS011;56604;48.652;9.194;2023-03-04T00:10:12;71.57;;;33.73;;
69410;SDS011;56604;48.652;9.194;2023-03-04T00:12:37;70.30;;;30.57;;
69410;SDS011;56604;48.652;9.194;2023-03-04T00:15:08;71.77;;;33.03;;
69410;SDS011;56604;48.652;9.194;2023-03-04T00:17:34;74.83;;;33.90;;
69410;SDS011;56604;48.652;9.194;2023-03-04T00:19:59;63.47;;;30.50;;
69410;SDS011;56604;48.652;9.194;2023-03-04T00:22:24;80.17;;;34.10;;
69410;SDS011;56604;48.652;9.194;2023-03-04T00:24:50;70.20;;;27.77;;
69410;SDS011;56604;48.652;9.194;2023-03-04T00:27:15;55.67;;;27.07;;
69410;SDS011;56604;48.652;9.194;2023-03-04T00:29:40;55.33;;;25.20;;
69410;SDS011;56604;48.652;9.194;2023-03-04T00:32:06;50.00;;;24.57;;
69410;SDS011;56604;48.652;9.194;2023-03-04T00:34:31;54.83;;;25.97;;
69410;SDS011;56604;48.652;9.194;2023-03-04T00:36:57;52.97;;;23.77;;
69410;SDS011;56604;48.652;9.194;2023-03-04T00:39:28;55.07;;;24.87;;
69410;SDS011;56604;48.652;9.194;2023-03-04T00:41:54;55.33;;;26.00;;
69410;SDS011;56604;48.652;9.194;2023-03-04T00:44:19;55.20;;;26.50;;
69410;SDS011;56604;48.652;9.194;2023-03-04T00:46:45;60.30;;;26.47;;
69410;SDS011;56604;48.652;9.194;2023-03-04T00:49:10;47.30;;;24.10;;
69410;SDS011;56604;48.652;9.194;2023-03-04T00:51:36;52.73;;;24.50;;
69410;SDS011;56604;48.652;9.194;2023-03-04T00:54:01;55.03;;;24.70;;
69410;SDS011;56604;48.652;9.194;2023-03-04T00:56:27;56.30;;;24.70;;
69410;SDS011;56604;48.652;9.194;2023-03-04T00:58:53;55.27;;;24.53;;
69410;SDS011;56604;48.652;9.194;2023-03-04T01:01:19;51.47;;;24.23;;
69410;SDS011;56604;48.652;9.194;2023-03-04T01:03:44;55.30;;;24.77;;
69410;SDS011;56604;48.652;9.194;2023-03-04T01:06:09;61.30;;;26.13;;
69410;SDS011;56604;48.652;9.194;2023-03-04T01:08:35;59.20;;;25.47;;
69410;SDS011;56604;48.652;9.194;2023-03-04T01:11:01;59.23;;;27.70;;
69410;SDS011;56604;48.652;9.194;2023-03-04T01:13:26;57.40;;;26.70;;
69410;SDS011;56604;48.652;9.194;2023-03-04T01:15:52;55.80;;;26.40;;
69410;SDS011;56604;48.652;9.194;2023-03-04T01:18:17;56.97;;;26.03;;
69410;SDS011;56604;48.652;9.194;2023-03-04T01:20:42;57.40;;;25.13;;
69410;SDS011;56604;48.652;9.194;2023-03-04T01:23:08;51.10;;;24.80;;
69410;SDS011;56604;48.652;9.194;2023-03-04T01:25:33;64.60;;;26.70;;
69410;SDS011;56604;48.652;9.194;2023-03-04T01:27:58;70.13;;;26.30;;
69410;SDS011;56604;48.652;9.194;2023-03-04T01:30:24;58.67;;;26.40;;
69410;SDS011;56604;48.652;9.194;2023-03-04T01:32:49;59.50;;;26.53;;
69410;SDS011;56604;48.652;9.194;2023-03-04T01:35:14;47.90;;;24.17;;
69410;SDS011;56604;48.652;9.194;2023-03-04T01:37:40;55.27;;;25.93;;
69410;SDS011;56604;48.652;9.194;2023-03-04T01:40:06;60.47;;;25.30;;
69410;SDS011;56604;48.652;9.194;2023-03-04T01:42:33;52.80;;;25.70;;
69410;SDS011;56604;48.652;9.194;2023-03-04T01:45:00;50.17;;;24.87;;
69410;SDS011;56604;48.652;9.194;2023-03-04T01:47:29;55.90;;;26.10;;
69410;SDS011;56604;48.652;9.194;2023-03-04T01:49:57;54.80;;;24.90;;
69410;SDS011;56604;48.652;9.194;2023-03-04T01:52:23;61.67;;;26.57;;
69410;SDS011;56604;48.652;9.194;2023-03-04T01:54:49;74.00;;;24.53;;
69410;SDS011;56604;48.652;9.194;2023-03-04T01:57:19;76.70;;;27.47;;
69410;SDS011;56604;48.652;9.194;2023-03-04T01:59:46;56.00;;;25.23;;
69410;SDS011;56604;48.652;9.194;2023-03-04T02:02:32;54.33;;;25.37;;
69410;SDS011;56604;48.652;9.194;2023-03-04T02:04:57;55.77;;;25.70;;
69410;SDS011;56604;48.652;9.194;2023-03-04T02:07:22;57.53;;;23.93;;
69410;SDS011;56604;48.652;9.194;2023-03-04T02:09:48;51.33;;;26.27;;
69410;SDS011;56604;48.652;9.194;2023-03-04T02:12:13;58.10;;;25.70;;
69410;SDS011;56604;48.652;9.194;2023-03-04T02:14:38;55.87;;;25.67;;
69410;SDS011;56604;48.652;9.194;2023-03-04T02:17:05;50.20;;;25.37;;
69410;SDS011;56604;48.652;9.194;2023-03-04T02:22:04;56.57;;;26.50;;
69410;SDS011;56604;48.652;9.194;2023-03-04T02:24:32;58.73;;;26.40;;
69410;SDS011;56604;48.652;9.194;2023-03-04T02:27:03;55.87;;;26.17;;
69410;SDS011;56604;48.652;9.194;2023-03-04T02:29:28;57.30;;;27.10;;
69410;SDS011;56604;48.652;9.194;2023-03-04T02:31:54;56.80;;;26.90;;
69410;SDS011;56604;48.652;9.194;2023-03-04T02:34:21;64.67;;;27.73;;
69410;SDS011;56604;48.652;9.194;2023-03-04T02:36:52;63.70;;;27.10;;
69410;SDS011;56604;48.652;9.194;2023-03-04T02:41:44;55.93;;;25.80;;
69410;SDS011;56604;48.652;9.194;2023-03-04T02:44:14;66.33;;;27.33;;
69410;SDS011;56604;48.652;9.194;2023-03-04T02:46:42;75.37;;;30.80;;
69410;SDS011;56604;48.652;9.194;2023-03-04T02:49:07;68.93;;;28.20;;
69410;SDS011;56604;48.652;9.194;2023-03-04T02:51:32;64.20;;;26.53;;
69410;SDS011;56604;48.652;9.194;2023-03-04T02:53:58;58.33;;;27.10;;
69410;SDS011;56604;48.652;9.194;2023-03-04T02:56:23;56.17;;;26.80;;
69410;SDS011;56604;48.652;9.194;2023-03-04T02:58:49;62.53;;;26.20;;
69410;SDS011;56604;48.652;9.194;2023-03-04T03:01:14;60.17;;;28.60;;
69410;SDS011;56604;48.652;9.194;2023-03-04T03:03:39;63.13;;;27.40;;
69410;SDS011;56604;48.652;9.194;2023-03-04T03:06:05;67.20;;;27.17;;
69410;SDS011;56604;48.652;9.194;2023-03-04T03:08:30;59.67;;;26.80;;
69410;SDS011;56604;48.652;9.194;2023-03-04T03:10:56;54.87;;;24.93;;
69410;SDS011;56604;48.652;9.194;2023-03-04T03:13:21;55.93;;;26.00;;
69410;SDS011;56604;48.652;9.194;2023-03-04T03:15:46;63.00;;;25.30;;
69410;SDS011;56604;48.652;9.194;2023-03-04T03:18:12;71.93;;;26.07;;
69410;SDS011;56604;48.652;9.194;2023-03-04T03:20:37;62.30;;;26.07;;
69410;SDS011;56604;48.652;9.194;2023-03-04T03:23:03;55.67;;;25.00;;
69410;SDS011;56604;48.652;9.194;2023-03-04T03:25:28;49.73;;;23.90;;
69410;SDS011;56604;48.652;9.194;2023-03-04T03:27:53;56.13;;;24.83;;
69410;SDS011;56604;48.652;9.194;2023-03-04T03:30:19;47.50;;;23.83;;
69410;SDS011;56604;48.652;9.194;2023-03-04T03:32:44;57.87;;;24.03;;
69410;SDS011;56604;48.652;9.194;2023-03-04T03:35:09;51.20;;;23.07;;
69410;SDS011;56604;48.652;9.194;2023-03-04T03:37:35;52.80;;;22.33;;
69410;SDS011;56604;48.652;9.194;2023-03-04T03:40:00;52.50;;;23.63;;
69410;SDS011;56604;48.652;9.194;2023-03-04T03:42:26;72.47;;;22.87;;
69410;SDS011;56604;48.652;9.194;2023-03-04T03:44:51;47.63;;;21.90;;
69410;SDS011;56604;48.652;9.194;2023-03-04T03:47:17;42.43;;;21.00;;
69410;SDS011;56604;48.652;9.194;2023-03-04T03:49:42;48.37;;;21.43;;
69410;SDS011;56604;48.652;9.194;2023-03-04T03:52:07;53.03;;;24.70;;
69410;SDS011;56604;48.652;9.194;2023-03-04T03:54:33;48.53;;;22.90;;
69410;SDS011;56604;48.652;9.194;2023-03-04T03:56:58;48.27;;;22.33;;
69410;SDS011;56604;48.652;9.194;2023-03-04T03:59:24;50.17;;;22.47;;
69410;SDS011;56604;48.652;9.194;2023-03-04T04:01:49;47.20;;;22.57;;
69410;SDS011;56604;48.652;9.194;2023-03-04T04:04:15;47.27;;;23.03;;
69410;SDS011;56604;48.652;9.194;2023-03-04T04:06:40;55.80;;;22.57;;
69410;SDS011;56604;48.652;9.194;2023-03-04T04:09:05;50.37;;;21.73;;
69410;SDS011;56604;48.652;9.194;2023-03-04T04:11:31;44.57;;;22.33;;
69410;SDS011;56604;48.652;9.194;2023-03-04T04:13:56;46.90;;;20.27;;
69410;SDS011;56604;48.652;9.194;2023-03-04T04:16:22;48.93;;;21.10;;
69410;SDS011;56604;48.652;9.194;2023-03-04T04:18:48;50.90;;;21.10;;
69410;SDS011;56604;48.652;9.194;2023-03-04T04:21:13;49.77;;;20.97;;
69410;SDS011;56604;48.652;9.194;2023-03-04T04:23:38;48.20;;;22.50;;
69410;SDS011;56604;48.652;9.194;2023-03-04T04:26:06;52.17;;;23.53;;
69410;SDS011;56604;48.652;9.194;2023-03-04T04:28:32;49.20;;;20.47;;
69410;SDS011;56604;48.652;9.194;2023-03-04T04:30:57;45.40;;;20.60;;
69410;SDS011;56604;48.652;9.194;2023-03-04T04:33:22;45.60;;;21.23;;
69410;SDS011;56604;48.652;9.194;2023-03-04T04:35:48;45.63;;;21.27;;
69410;SDS011;56604;48.652;9.194;2023-03-04T04:38:13;47.87;;;21.20;;
69410;SDS011;56604;48.652;9.194;2023-03-04T04:40:38;57.00;;;22.50;;
69410;SDS011;56604;48.652;9.194;2023-03-04T04:43:04;49.53;;;21.87;;
69410;SDS011;56604;48.652;9.194;2023-03-04T04:45:32;47.23;;;21.63;;
69410;SDS011;56604;48.652;9.194;2023-03-04T04:47:58;45.77;;;20.80;;
69410;SDS011;56604;48.652;9.194;2023-03-04T04:50:23;43.00;;;21.47;;
69410;SDS011;56604;48.652;9.194;2023-03-04T04:52:49;46.70;;;22.43;;
69410;SDS011;56604;48.652;9.194;2023-03-04T04:55:14;45.90;;;21.43;;
69410;SDS011;56604;48.652;9.194;2023-03-04T04:57:40;44.77;;;21.90;;
69410;SDS011;56604;48.652;9.194;2023-03-04T05:00:05;48.03;;;21.30;;
69410;SDS011;56604;48.652;9.194;2023-03-04T05:02:31;43.60;;;20.97;;
69410;SDS011;56604;48.652;9.194;2023-03-04T05:05:00;48.47;;;22.23;;
69410;SDS011;56604;48.652;9.194;2023-03-04T05:07:26;55.23;;;23.57;;
69410;SDS011;56604;48.652;9.194;2023-03-04T05:09:51;56.50;;;21.80;;
69410;SDS011;56604;48.652;9.194;2023-03-04T05:12:17;43.50;;;20.53;;
69410;SDS011;56604;48.652;9.194;2023-03-04T05:14:42;47.97;;;20.60;;
69410;SDS011;56604;48.652;9.194;2023-03-04T05:17:08;45.83;;;21.23;;
69410;SDS011;56604;48.652;9.194;2023-03-04T05:19:33;46.43;;;20.33;;
69410;SDS011;56604;48.652;9.194;2023-03-04T05:21:58;46.57;;;21.20;;
69410;SDS011;56604;48.652;9.194;2023-03-04T05:24:23;44.03;;;21.03;;
69410;SDS011;56604;48.652;9.194;2023-03-04T05:26:49;46.43;;;19.70;;
69410;SDS011;56604;48.652;9.194;2023-03-04T05:29:14;39.13;;;20.17;;
69410;SDS011;56604;48.652;9.194;2023-03-04T05:31:39;44.30;;;21.03;;
69410;SDS011;56604;48.652;9.194;2023-03-04T05:34:05;38.70;;;20.00;;
69410;SDS011;56604;48.652;9.194;2023-03-04T05:36:30;42.63;;;20.10;;
69410;SDS011;56604;48.652;9.194;2023-03-04T05:38:55;40.27;;;20.83;;
69410;SDS011;56604;48.652;9.194;2023-03-04T05:41:21;46.73;;;20.00;;
69410;SDS011;56604;48.652;9.194;2023-03-04T05:43:47;49.07;;;20.70;;
69410;SDS011;56604;48.652;9.194;2023-03-04T05:46:14;44.53;;;20.90;;
69410;SDS011;56604;48.652;9.194;2023-03-04T05:48:41;54.53;;;21.00;;
69410;SDS011;56604;48.652;9.194;2023-03-04T05:51:06;44.57;;;21.80;;
69410;SDS011;56604;48.652;9.194;2023-03-04T05:53:31;47.50;;;19.40;;
69410;SDS011;56604;48.652;9.194;2023-03-04T05:55:57;47.23;;;21.90;;
69410;SDS011;56604;48.652;9.194;2023-03-04T05:58:25;44.67;;;20.00;;
69410;SDS011;56604;48.652;9.194;2023-03-04T06:00:50;56.67;;;22.63;;
69410;SDS011;56604;48.652;9.194;2023-03-04T06:03:17;47.57;;;20.23;;
69410;SDS011;56604;48.652;9.194;2023-03-04T06:05:44;41.60;;;19.77;;
69410;SDS011;56604;48.652;9.194;2023-03-04T06:08:10;45.00;;;19.40;;
69410;SDS011;56604;48.652;9.194;2023-03-04T06:10:37;39.87;;;19.83;;
69410;SDS011;56604;48.652;9.194;2023-03-04T06:13:03;42.47;;;19.83;;
69410;SDS011;56604;48.652;9.194;2023-03-04T06:15:29;46.87;;;20.03;;
69410;SDS011;56604;48.652;9.194;2023-03-04T06:17:54;46.17;;;20.00;;
69410;SDS011;56604;48.652;9.194;2023-03-04T06:20:20;48.13;;;20.90;;
69410;SDS011;56604;48.652;9.194;2023-03-04T06:22:45;46.27;;;20.57;;
69410;SDS011;56604;48.652;9.194;2023-03-04T06:25:11;39.27;;;18.33;;
69410;SDS011;56604;48.652;9.194;2023-03-04T06:27:36;47.20;;;19.30;;
69410;SDS011;56604;48.652;9.194;2023-03-04T06:30:02;38.30;;;17.90;;
69410;SDS011;56604;48.652;9.194;2023-03-04T06:32:28;41.77;;;18.37;;
69410;SDS011;56604;48.652;9.194;2023-03-04T06:34:53;35.03;;;17.70;;
69410;SDS011;56604;48.652;9.194;2023-03-04T06:37:18;39.63;;;17.77;;
69410;SDS011;56604;48.652;9.194;2023-03-04T06:39:44;37.83;;;17.47;;
69410;SDS011;56604;48.652;9.194;2023-03-04T06:42:10;39.63;;;17.60;;
69410;SDS011;56604;48.652;9.194;2023-03-04T06:44:36;32.37;;;16.07;;
69410;SDS011;56604;48.652;9.194;2023-03-04T06:47:01;30.37;;;16.50;;
69410;SDS011;56604;48.652;9.194;2023-03-04T06:49:27;32.30;;;16.07;;
69410;SDS011;56604;48.652;9.194;2023-03-04T06:51:52;27.33;;;15.17;;
69410;SDS011;56604;48.652;9.194;2023-03-04T06:54:17;31.40;;;15.83;;
69410;SDS011;56604;48.652;9.194;2023-03-04T06:56:44;35.50;;;16.50;;
69410;SDS011;56604;48.652;9.194;2023-03-04T06:59:09;35.10;;;15.70;;
69410;SDS011;56604;48.652;9.194;2023-03-04T07:01:34;34.60;;;16.50;;
69410;SDS011;56604;48.652;9.194;2023-03-04T07:04:00;38.10;;;15.80;;
69410;SDS011;56604;48.652;9.194;2023-03-04T07:06:26;30.17;;;15.13;;
69410;SDS011;56604;48.652;9.194;2023-03-04T07:08:53;32.27;;;15.80;;
69410;SDS011;56604;48.652;9.194;2023-03-04T07:11:18;29.73;;;15.43;;
69410;SDS011;56604;48.652;9.194;2023-03-04T07:13:46;48.43;;;26.23;;
69410;SDS011;56604;48.652;9.194;2023-03-04T07:16:13;29.80;;;16.17;;
69410;SDS011;56604;48.652;9.194;2023-03-04T07:18:40;37.03;;;19.87;;
69410;SDS011;56604;48.652;9.194;2023-03-04T07:21:05;36.13;;;18.47;;
69410;SDS011;56604;48.652;9.194;2023-03-04T07:23:34;29.70;;;15.30;;
69410;SDS011;56604;48.652;9.194;2023-03-04T07:25:59;32.33;;;18.10;;
69410;SDS011;56604;48.652;9.194;2023-03-04T07:28:25;30.13;;;15.47;;
69410;SDS011;56604;48.652;9.194;2023-03-04T07:30:51;113.13;;;61.43;;
69410;SDS011;56604;48.652;9.194;2023-03-04T07:33:16;34.33;;;17.50;;
69410;SDS011;56604;48.652;9.194;2023-03-04T07:35:42;33.43;;;16.60;;
69410;SDS011;56604;48.652;9.194;2023-03-04T07:40:44;32.47;;;16.40;;
69410;SDS011;56604;48.652;9.194;2023-03-04T07:43:18;33.10;;;16.67;;
69410;SDS011;56604;48.652;9.194;2023-03-04T07:45:43;26.80;;;14.37;;
69410;SDS011;56604;48.652;9.194;2023-03-04T07:48:09;27.87;;;15.40;;
69410;SDS011;56604;48.652;9.194;2023-03-04T07:50:34;35.63;;;17.40;;
69410;SDS011;56604;48.652;9.194;2023-03-04T07:52:59;35.20;;;17.07;;
69410;SDS011;56604;48.652;9.194;2023-03-04T07:55:25;36.27;;;19.57;;
69410;SDS011;56604;48.652;9.194;2023-03-04T07:57:51;31.67;;;15.63;;
69410;SDS011;56604;48.652;9.194;2023-03-04T08:00:17;29.03;;;14.80;;
69410;SDS011;56604;48.652;9.194;2023-03-04T08:02:42;33.53;;;16.50;;
69410;SDS011;56604;48.652;9.194;2023-03-04T08:05:08;54.57;;;25.80;;
69410;SDS011;56604;48.652;9.194;2023-03-04T08:07:33;32.40;;;16.13;;
69410;SDS011;56604;48.652;9.194;2023-03-04T08:09:59;35.60;;;15.20;;
69410;SDS011;56604;48.652;9.194;2023-03-04T08:12:25;31.33;;;16.50;;
69410;SDS011;56604;48.652;9.194;2023-03-04T08:14:52;44.87;;;16.17;;
69410;SDS011;56604;48.652;9.194;2023-03-04T08:17:17;40.23;;;17.40;;
69410;SDS011;56604;48.652;9.194;2023-03-04T08:19:43;29.47;;;15.10;;
69410;SDS011;56604;48.652;9.194;2023-03-04T08:22:08;42.03;;;14.00;;
69410;SDS011;56604;48.652;9.194;2023-03-04T08:24:34;29.77;;;15.67;;
69410;SDS011;56604;48.652;9.194;2023-03-04T08:26:59;29.73;;;15.40;;
69410;SDS011;56604;48.652;9.194;2023-03-04T08:29:25;34.67;;;17.40;;
69410;SDS011;56604;48.652;9.194;2023-03-04T08:31:51;30.83;;;14.87;;
69410;SDS011;56604;48.652;9.194;2023-03-04T08:34:19;33.63;;;15.10;;
69410;SDS011;56604;48.652;9.194;2023-03-04T08:36:46;34.40;;;16.43;;
69410;SDS011;56604;48.652;9.194;2023-03-04T08:39:12;31.50;;;14.70;;
69410;SDS011;56604;48.652;9.194;2023-03-04T08:41:38;30.97;;;16.10;;
69410;SDS011;56604;48.652;9.194;2023-03-04T08:44:04;26.73;;;13.60;;
69410;SDS011;56604;48.652;9.194;2023-03-04T08:46:29;29.70;;;14.60;;
69410;SDS011;56604;48.652;9.194;2023-03-04T08:48:55;28.80;;;15.03;;
69410;SDS011;56604;48.652;9.194;2023-03-04T08:51:21;27.03;;;14.40;;
69410;SDS011;56604;48.652;9.194;2023-03-04T08:53:46;25.53;;;13.50;;
69410;SDS011;56604;48.652;9.194;2023-03-04T08:56:12;27.43;;;12.70;;
69410;SDS011;56604;48.652;9.194;2023-03-04T08:58:38;27.30;;;13.33;;
69410;SDS011;56604;48.652;9.194;2023-03-04T09:01:04;28.17;;;14.80;;
69410;SDS011;56604;48.652;9.194;2023-03-04T09:03:36;22.93;;;12.90;;
69410;SDS011;56604;48.652;9.194;2023-03-04T09:06:02;30.90;;;13.87;;
69410;SDS011;56604;48.652;9.194;2023-03-04T09:08:28;26.23;;;13.37;;
69410;SDS011;56604;48.652;9.194;2023-03-04T09:10:53;26.70;;;13.43;;
69410;SDS011;56604;48.652;9.194;2023-03-04T09:13:19;31.47;;;15.20;;
69410;SDS011;56604;48.652;9.194;2023-03-04T09:15:46;31.33;;;15.90;;
69410;SDS011;56604;48.652;9.194;2023-03-04T09:18:14;28.80;;;14.50;;
69410;SDS011;56604;48.652;9.194;2023-03-04T09:20:39;28.20;;;14.00;;
69410;SDS011;56604;48.652;9.194;2023-03-04T09:23:05;38.13;;;15.13;;
69410;SDS011;56604;48.652;9.194;2023-03-04T09:25:31;36.00;;;16.47;;
69410;SDS011;56604;48.652;9.194;2023-03-04T09:27:56;31.70;;;15.10;;
69410;SDS011;56604;48.652;9.194;2023-03-04T09:30:22;28.57;;;14.73;;
69410;SDS011;56604;48.652;9.194;2023-03-04T09:32:47;39.03;;;16.27;;
69410;SDS011;56604;48.652;9.194;2023-03-04T09:35:12;36.63;;;18.33;;
69410;SDS011;56604;48.652;9.194;2023-03-04T09:37:38;39.67;;;19.83;;
69410;SDS011;56604;48.652;9.194;2023-03-04T09:40:03;38.83;;;20.67;;
69410;SDS011;56604;48.652;9.194;2023-03-04T09:42:37;30.73;;;14.80;;
69410;SDS011;56604;48.652;9.194;2023-03-04T09:45:18;35.83;;;16.73;;
69410;SDS011;56604;48.652;9.194;2023-03-04T09:47:45;26.33;;;13.97;;
69410;SDS011;56604;48.652;9.194;2023-03-04T09:50:14;29.07;;;13.90;;
69410;SDS011;56604;48.652;9.194;2023-03-04T09:55:27;28.80;;;14.80;;
69410;SDS011;56604;48.652;9.194;2023-03-04T09:57:59;27.00;;;13.70;;
69410;SDS011;56604;48.652;9.194;2023-03-04T10:00:38;31.93;;;15.70;;
69410;SDS011;56604;48.652;9.194;2023-03-04T10:03:16;31.20;;;15.27;;
69410;SDS011;56604;48.652;9.194;2023-03-04T10:05:54;30.70;;;14.80;;
69410;SDS011;56604;48.652;9.194;2023-03-04T10:08:43;32.73;;;14.90;;
69410;SDS011;56604;48.652;9.194;2023-03-04T10:11:29;26.80;;;14.40;;
69410;SDS011;56604;48.652;9.194;2023-03-04T10:14:01;30.40;;;14.33;;
69410;SDS011;56604;48.652;9.194;2023-03-04T10:16:52;33.93;;;15.07;;
69410;SDS011;56604;48.652;9.194;2023-03-04T10:19:29;28.07;;;14.80;;
69410;SDS011;56604;48.652;9.194;2023-03-04T10:22:01;27.40;;;14.87;;
69410;SDS011;56604;48.652;9.194;2023-03-04T10:24:44;33.20;;;14.70;;
69410;SDS011;56604;48.652;9.194;2023-03-04T10:27:11;29.93;;;14.70;;
69410;SDS011;56604;48.652;9.194;2023-03-04T10:29:39;27.57;;;14.73;;
69410;SDS011;56604;48.652;9.194;2023-03-04T10:32:04;32.77;;;15.50;;
69410;SDS011;56604;48.652;9.194;2023-03-04T10:34:30;27.77;;;14.97;;
69410;SDS011;56604;48.652;9.194;2023-03-04T10:36:57;27.87;;;14.87;;
69410;SDS011;56604;48.652;9.194;2023-03-04T10:39:35;30.73;;;15.00;;
69410;SDS011;56604;48.652;9.194;2023-03-04T10:44:39;33.07;;;16.70;;
69410;SDS011;56604;48.652;9.194;2023-03-04T10:47:08;28.87;;;15.40;;
69410;SDS011;56604;48.652;9.194;2023-03-04T10:49:48;30.03;;;15.97;;
69410;SDS011;56604;48.652;9.194;2023-03-04T10:54:54;29.97;;;15.47;;
69410;SDS011;56604;48.652;9.194;2023-03-04T10:57:23;30.00;;;16.97;;
69410;SDS011;56604;48.652;9.194;2023-03-04T11:02:50;38.50;;;19.70;;
69410;SDS011;56604;48.652;9.194;2023-03-04T11:12:42;49.20;;;19.10;;
69410;SDS011;56604;48.652;9.194;2023-03-04T11:15:17;39.20;;;20.27;;
69410;SDS011;56604;48.652;9.194;2023-03-04T11:17:49;32.43;;;18.37;;
69410;SDS011;56604;48.652;9.194;2023-03-04T11:20:24;32.90;;;19.37;;
69410;SDS011;56604;48.652;9.194;2023-03-04T11:22:54;33.00;;;18.30;;
69410;SDS011;56604;48.652;9.194;2023-03-04T11:25:35;31.30;;;17.97;;
69410;SDS011;56604;48.652;9.194;2023-03-04T11:28:05;37.13;;;20.30;;
69410;SDS011;56604;48.652;9.194;2023-03-04T11:30:43;33.83;;;18.13;;
69410;SDS011;56604;48.652;9.194;2023-03-04T11:36:21;37.50;;;19.07;;
69410;SDS011;56604;48.652;9.194;2023-03-04T11:38:54;31.43;;;18.80;;
69410;SDS011;56604;48.652;9.194;2023-03-04T11:41:37;33.77;;;18.47;;
69410;SDS011;56604;48.652;9.194;2023-03-04T11:44:06;36.83;;;21.13;;
69410;SDS011;56604;48.652;9.194;2023-03-04T11:49:28;39.23;;;20.30;;
69410;SDS011;56604;48.652;9.194;2023-03-04T11:55:11;34.30;;;19.60;;
69410;SDS011;56604;48.652;9.194;2023-03-04T12:08:34;42.07;;;22.97;;
69410;SDS011;56604;48.652;9.194;2023-03-04T12:14:08;42.13;;;22.57;;
69410;SDS011;56604;48.652;9.194;2023-03-04T12:19:46;42.17;;;22.60;;
69410;SDS011;56604;48.652;9.194;2023-03-04T12:22:26;40.10;;;21.60;;
69410;SDS011;56604;48.652;9.194;2023-03-04T12:25:17;43.17;;;22.43;;
69410;SDS011;56604;48.652;9.194;2023-03-04T12:28:01;43.60;;;22.10;;
69410;SDS011;56604;48.652;9.194;2023-03-04T12:36:05;36.47;;;20.70;;
69410;SDS011;56604;48.652;9.194;2023-03-04T12:41:26;38.73;;;20.77;;
69410;SDS011;56604;48.652;9.194;2023-03-04T12:49:26;38.30;;;20.67;;
69410;SDS011;56604;48.652;9.194;2023-03-04T12:54:31;48.70;;;23.80;;
69410;SDS011;56604;48.652;9.194;2023-03-04T12:57:16;43.63;;;21.93;;
69410;SDS011;56604;48.652;9.194;2023-03-04T12:59:50;36.43;;;20.87;;
69410;SDS011;56604;48.652;9.194;2023-03-04T13:08:01;38.17;;;20.97;;
69410;SDS011;56604;48.652;9.194;2023-03-04T13:10:36;39.10;;;21.90;;
69410;SDS011;56604;48.652;9.194;2023-03-04T13:13:02;36.60;;;20.40;;
69410;SDS011;56604;48.652;9.194;2023-03-04T13:15:35;38.97;;;20.73;;
69410;SDS011;56604;48.652;9.194;2023-03-04T13:18:03;45.80;;;22.87;;
69410;SDS011;56604;48.652;9.194;2023-03-04T13:21:04;43.30;;;21.90;;
69410;SDS011;56604;48.652;9.194;2023-03-04T13:23:30;34.90;;;18.60;;
69410;SDS011;56604;48.652;9.194;2023-03-04T13:28:28;53.23;;;21.20;;
69410;SDS011;56604;48.652;9.194;2023-03-04T13:48:42;39.83;;;21.57;;
69410;SDS011;56604;48.652;9.194;2023-03-04T13:51:31;41.43;;;21.50;;
69410;SDS011;56604;48.652;9.194;2023-03-04T13:56:44;36.53;;;22.27;;
69410;SDS011;56604;48.652;9.194;2023-03-04T13:59:21;38.70;;;21.53;;
69410;SDS011;56604;48.652;9.194;2023-03-04T14:01:54;40.57;;;23.20;;
69410;SDS011;56604;48.652;9.194;2023-03-04T14:04:39;41.03;;;21.70;;
69410;SDS011;56604;48.652;9.194;2023-03-04T14:07:16;43.87;;;23.40;;
69410;SDS011;56604;48.652;9.194;2023-03-04T14:09:52;42.20;;;21.27;;
69410;SDS011;56604;48.652;9.194;2023-03-04T14:12:43;50.27;;;25.83;;
69410;SDS011;56604;48.652;9.194;2023-03-04T14:17:39;54.07;;;22.37;;
69410;SDS011;56604;48.652;9.194;2023-03-04T14:20:29;44.27;;;23.70;;
69410;SDS011;56604;48.652;9.194;2023-03-04T14:23:03;45.30;;;23.07;;
69410;SDS011;56604;48.652;9.194;2023-03-04T14:25:46;48.93;;;23.57;;
69410;SDS011;56604;48.652;9.194;2023-03-04T14:28:13;46.67;;;22.30;;
69410;SDS011;56604;48.652;9.194;2023-03-04T14:30:49;48.60;;;22.73;;
69410;SDS011;56604;48.652;9.194;2023-03-04T14:33:18;45.50;;;20.00;;
69410;SDS011;56604;48.652;9.194;2023-03-04T14:35:49;40.23;;;19.73;;
69410;SDS011;56604;48.652;9.194;2023-03-04T14:40:52;32.83;;;17.73;;
69410;SDS011;56604;48.652;9.194;2023-03-04T14:43:31;36.97;;;18.37;;
69410;SDS011;56604;48.652;9.194;2023-03-04T14:46:02;39.40;;;19.10;;
69410;SDS011;56604;48.652;9.194;2023-03-04T14:48:32;38.10;;;17.53;;
69410;SDS011;56604;48.652;9.194;2023-03-04T14:50:59;33.10;;;16.70;;
69410;SDS011;56604;48.652;9.194;2023-03-04T14:53:29;41.27;;;17.60;;
69410;SDS011;56604;48.652;9.194;2023-03-04T14:56:05;35.37;;;16.90;;
69410;SDS011;56604;48.652;9.194;2023-03-04T14:58:34;38.10;;;18.00;;
69410;SDS011;56604;48.652;9.194;2023-03-04T15:03:37;46.30;;;21.53;;
69410;SDS011;56604;48.652;9.194;2023-03-04T15:06:20;36.30;;;17.10;;
69410;SDS011;56604;48.652;9.194;2023-03-04T15:08:53;34.63;;;17.07;;
69410;SDS011;56604;48.652;9.194;2023-03-04T15:11:46;43.17;;;17.80;;
69410;SDS011;56604;48.652;9.194;2023-03-04T15:17:05;34.80;;;16.50;;
69410;SDS011;56604;48.652;9.194;2023-03-04T15:19:45;38.30;;;16.97;;
69410;SDS011;56604;48.652;9.194;2023-03-04T15:22:22;42.30;;;17.60;;
69410;SDS011;56604;48.652;9.194;2023-03-04T15:24:47;41.17;;;17.50;;
69410;SDS011;56604;48.652;9.194;2023-03-04T15:27:13;43.00;;;17.97;;
69410;SDS011;56604;48.652;9.194;2023-03-04T15:29:40;37.13;;;17.90;;
69410;SDS011;56604;48.652;9.194;2023-03-04T15:32:08;37.40;;;17.07;;
69410;SDS011;56604;48.652;9.194;2023-03-04T15:34:34;37.97;;;17.83;;
69410;SDS011;56604;48.652;9.194;2023-03-04T15:36:59;40.50;;;18.00;;
69410;SDS011;56604;48.652;9.194;2023-03-04T15:39:25;56.40;;;19.60;;
69410;SDS011;56604;48.652;9.194;2023-03-04T15:41:51;46.77;;;18.90;;
69410;SDS011;56604;48.652;9.194;2023-03-04T15:44:17;44.60;;;19.53;;
69410;SDS011;56604;48.652;9.194;2023-03-04T15:46:42;42.03;;;18.73;;
69410;SDS011;56604;48.652;9.194;2023-03-04T15:49:07;51.53;;;18.20;;
69410;SDS011;56604;48.652;9.194;2023-03-04T15:51:33;40.93;;;17.90;;
69410;SDS011;56604;48.652;9.194;2023-03-04T15:53:59;38.67;;;17.73;;
69410;SDS011;56604;48.652;9.194;2023-03-04T15:56:26;30.27;;;14.47;;
69410;SDS011;56604;48.652;9.194;2023-03-04T15:59:02;36.30;;;14.43;;
69410;SDS011;56604;48.652;9.194;2023-03-04T16:01:30;40.40;;;15.97;;
69410;SDS011;56604;48.652;9.194;2023-03-04T16:03:56;44.20;;;16.07;;
69410;SDS011;56604;48.652;9.194;2023-03-04T16:06:21;39.80;;;17.10;;
69410;SDS011;56604;48.652;9.194;2023-03-04T16:08:49;32.40;;;16.23;;
69410;SDS011;56604;48.652;9.194;2023-03-04T16:11:23;34.70;;;14.00;;
69410;SDS011;56604;48.652;9.194;2023-03-04T16:13:50;43.30;;;16.30;;